sensor_id;sensor_type;location;lat;lon;timestamp;temperature;humidity
20066;DHT22;10193;48.884;9.182;2023-09-19T00:01:57;20.60;65.70
20066;DHT22;10193;48.884;9.182;2023-09-19T00:04:26;20.60;65.80
20066;DHT22;10193;48.884;9.182;2023-09-19T00:06:54;20.60;65.80
20066;DHT22;10193;48.884;9.182;2023-09-19T00:09:21;20.70;66.00
20066;DHT22;10193;48.884;9.182;2023-09-19T00:11:51;20.60;65.90
20066;DHT22;10193;48.884;9.182;2023-09-19T00:14:18;20.60;66.00
20066;DHT22;10193;48.884;9.182;2023-09-19T00:16:45;20.60;66.00
20066;DHT22;10193;48.884;9.182;2023-09-19T00:19:12;20.60;66.10
20066;DHT22;10193;48.884;9.182;2023-09-19T00:21:40;20.60;66.10
20066;DHT22;10193;48.884;9.182;2023-09-19T00:24:07;20.50;66.10
20066;DHT22;10193;48.884;9.182;2023-09-19T00:26:34;20.60;66.20
20066;DHT22;10193;48.884;9.182;2023-09-19T00:29:01;20.60;66.20
20066;DHT22;10193;48.884;9.182;2023-09-19T00:31:33;20.50;66.10
20066;DHT22;10193;48.884;9.182;2023-09-19T00:34:03;20.50;66.10
20066;DHT22;10193;48.884;9.182;2023-09-19T00:36:32;20.50;66.20
20066;DHT22;10193;48.884;9.182;2023-09-19T00:39:00;20.50;66.20
20066;DHT22;10193;48.884;9.182;2023-09-19T00:41:28;20.40;66.10
20066;DHT22;10193;48.884;9.182;2023-09-19T00:43:55;20.40;66.10
20066;DHT22;10193;48.884;9.182;2023-09-19T00:46:22;20.40;66.10
20066;DHT22;10193;48.884;9.182;2023-09-19T00:48:49;20.50;66.20
20066;DHT22;10193;48.884;9.182;2023-09-19T00:51:16;20.40;66.20
20066;DHT22;10193;48.884;9.182;2023-09-19T00:53:45;20.40;66.30
20066;DHT22;10193;48.884;9.182;2023-09-19T00:56:14;20.40;66.40
20066;DHT22;10193;48.884;9.182;2023-09-19T00:58:43;20.40;66.50
20066;DHT22;10193;48.884;9.182;2023-09-19T01:01:12;20.40;66.50
20066;DHT22;10193;48.884;9.182;2023-09-19T01:03:40;20.40;67.30
20066;DHT22;10193;48.884;9.182;2023-09-19T01:06:07;20.40;66.60
20066;DHT22;10193;48.884;9.182;2023-09-19T01:08:34;20.40;66.60
20066;DHT22;10193;48.884;9.182;2023-09-19T01:11:06;20.40;66.60
20066;DHT22;10193;48.884;9.182;2023-09-19T01:13:43;20.40;66.60
20066;DHT22;10193;48.884;9.182;2023-09-19T01:16:19;20.40;66.70
20066;DHT22;10193;48.884;9.182;2023-09-19T01:18:55;20.30;66.60
20066;DHT22;10193;48.884;9.182;2023-09-19T01:21:30;20.40;66.60
20066;DHT22;10193;48.884;9.182;2023-09-19T01:24:16;20.40;66.60
20066;DHT22;10193;48.884;9.182;2023-09-19T01:27:04;20.40;66.70
20066;DHT22;10193;48.884;9.182;2023-09-19T01:29:37;20.40;66.60
20066;DHT22;10193;48.884;9.182;2023-09-19T01:32:07;20.40;66.50
20066;DHT22;10193;48.884;9.182;2023-09-19T01:34:44;20.40;66.50
20066;DHT22;10193;48.884;9.182;2023-09-19T01:37:14;20.30;66.60
20066;DHT22;10193;48.884;9.182;2023-09-19T01:39:45;20.40;66.40
20066;DHT22;10193;48.884;9.182;2023-09-19T01:42:23;20.30;66.30
20066;DHT22;10193;48.884;9.182;2023-09-19T01:44:57;20.30;66.50
20066;DHT22;10193;48.884;9.182;2023-09-19T01:47:32;20.30;66.40
20066;DHT22;10193;48.884;9.182;2023-09-19T01:50:07;20.30;66.50
20066;DHT22;10193;48.884;9.182;2023-09-19T01:52:46;20.20;66.20
20066;DHT22;10193;48.884;9.182;2023-09-19T01:55:14;20.30;66.30
20066;DHT22;10193;48.884;9.182;2023-09-19T01:57:49;20.30;66.20
20066;DHT22;10193;48.884;9.182;2023-09-19T02:00:18;20.20;66.30
20066;DHT22;10193;48.884;9.182;2023-09-19T02:02:49;20.20;66.20
20066;DHT22;10193;48.884;9.182;2023-09-19T02:05:22;20.10;67.00
20066;DHT22;10193;48.884;9.182;2023-09-19T02:07:49;20.10;66.30
20066;DHT22;10193;48.884;9.182;2023-09-19T02:10:16;20.10;66.20
20066;DHT22;10193;48.884;9.182;2023-09-19T02:12:43;20.00;66.20
20066;DHT22;10193;48.884;9.182;2023-09-19T02:15:10;20.10;66.30
20066;DHT22;10193;48.884;9.182;2023-09-19T02:17:37;20.00;66.20
20066;DHT22;10193;48.884;9.182;2023-09-19T02:20:06;19.90;66.20
20066;DHT22;10193;48.884;9.182;2023-09-19T02:22:40;19.90;66.30
20066;DHT22;10193;48.884;9.182;2023-09-19T02:25:07;19.90;66.40
20066;DHT22;10193;48.884;9.182;2023-09-19T02:27:34;19.80;66.30
20066;DHT22;10193;48.884;9.182;2023-09-19T02:30:01;19.80;66.50
20066;DHT22;10193;48.884;9.182;2023-09-19T02:32:29;19.70;66.50
20066;DHT22;10193;48.884;9.182;2023-09-19T02:34:56;19.70;66.50
20066;DHT22;10193;48.884;9.182;2023-09-19T02:37:25;19.70;66.60
20066;DHT22;10193;48.884;9.182;2023-09-19T02:39:52;19.70;66.70
20066;DHT22;10193;48.884;9.182;2023-09-19T02:42:19;19.60;66.70
20066;DHT22;10193;48.884;9.182;2023-09-19T02:44:45;19.60;66.90
20066;DHT22;10193;48.884;9.182;2023-09-19T02:47:13;19.60;67.10
20066;DHT22;10193;48.884;9.182;2023-09-19T02:49:42;19.60;67.20
20066;DHT22;10193;48.884;9.182;2023-09-19T02:52:09;19.60;67.30
20066;DHT22;10193;48.884;9.182;2023-09-19T02:54:37;19.60;67.40
20066;DHT22;10193;48.884;9.182;2023-09-19T02:57:04;19.60;67.50
20066;DHT22;10193;48.884;9.182;2023-09-19T02:59:32;19.60;68.40
20066;DHT22;10193;48.884;9.182;2023-09-19T03:02:02;19.60;67.70
20066;DHT22;10193;48.884;9.182;2023-09-19T03:04:30;19.60;67.80
20066;DHT22;10193;48.884;9.182;2023-09-19T03:06:58;19.70;67.90
20066;DHT22;10193;48.884;9.182;2023-09-19T03:09:26;19.60;67.80
20066;DHT22;10193;48.884;9.182;2023-09-19T03:11:54;19.60;67.70
20066;DHT22;10193;48.884;9.182;2023-09-19T03:14:21;19.60;67.70
20066;DHT22;10193;48.884;9.182;2023-09-19T03:16:49;19.70;67.90
20066;DHT22;10193;48.884;9.182;2023-09-19T03:19:16;19.70;67.90
20066;DHT22;10193;48.884;9.182;2023-09-19T03:21:42;19.70;67.90
20066;DHT22;10193;48.884;9.182;2023-09-19T03:24:09;19.70;67.90
20066;DHT22;10193;48.884;9.182;2023-09-19T03:26:36;19.80;68.10
20066;DHT22;10193;48.884;9.182;2023-09-19T03:29:05;19.80;68.10
20066;DHT22;10193;48.884;9.182;2023-09-19T03:31:33;19.80;68.10
20066;DHT22;10193;48.884;9.182;2023-09-19T03:34:02;19.80;68.10
20066;DHT22;10193;48.884;9.182;2023-09-19T03:36:29;19.80;68.30
20066;DHT22;10193;48.884;9.182;2023-09-19T03:38:56;19.80;68.30
20066;DHT22;10193;48.884;9.182;2023-09-19T03:41:23;19.90;68.40
20066;DHT22;10193;48.884;9.182;2023-09-19T03:43:49;19.90;68.50
20066;DHT22;10193;48.884;9.182;2023-09-19T03:46:17;19.90;68.50
20066;DHT22;10193;48.884;9.182;2023-09-19T03:48:44;19.90;68.50
20066;DHT22;10193;48.884;9.182;2023-09-19T03:51:10;19.90;68.50
20066;DHT22;10193;48.884;9.182;2023-09-19T03:53:37;19.90;68.50
20066;DHT22;10193;48.884;9.182;2023-09-19T03:56:04;19.90;68.50
20066;DHT22;10193;48.884;9.182;2023-09-19T03:58:30;19.90;68.40
20066;DHT22;10193;48.884;9.182;2023-09-19T04:00:57;19.90;68.50
20066;DHT22;10193;48.884;9.182;2023-09-19T04:03:26;19.90;68.60
20066;DHT22;10193;48.884;9.182;2023-09-19T04:06:00;19.80;68.60
20066;DHT22;10193;48.884;9.182;2023-09-19T04:08:27;19.80;68.70
20066;DHT22;10193;48.884;9.182;2023-09-19T04:10:55;19.80;68.90
20066;DHT22;10193;48.884;9.182;2023-09-19T04:13:22;19.70;68.80
20066;DHT22;10193;48.884;9.182;2023-09-19T04:15:48;19.70;68.90
20066;DHT22;10193;48.884;9.182;2023-09-19T04:18:15;19.70;69.10
20066;DHT22;10193;48.884;9.182;2023-09-19T04:20:48;19.70;69.20
20066;DHT22;10193;48.884;9.182;2023-09-19T04:23:14;19.70;69.50
20066;DHT22;10193;48.884;9.182;2023-09-19T04:25:42;19.70;69.50
20066;DHT22;10193;48.884;9.182;2023-09-19T04:28:09;19.70;69.50
20066;DHT22;10193;48.884;9.182;2023-09-19T04:30:36;19.70;69.60
20066;DHT22;10193;48.884;9.182;2023-09-19T04:33:03;19.70;69.60
20066;DHT22;10193;48.884;9.182;2023-09-19T04:35:30;19.70;69.70
20066;DHT22;10193;48.884;9.182;2023-09-19T04:37:58;19.70;69.80
20066;DHT22;10193;48.884;9.182;2023-09-19T04:40:25;19.70;70.00
20066;DHT22;10193;48.884;9.182;2023-09-19T04:42:56;19.70;70.00
20066;DHT22;10193;48.884;9.182;2023-09-19T04:45:23;19.70;69.90
20066;DHT22;10193;48.884;9.182;2023-09-19T04:47:50;19.80;69.80
20066;DHT22;10193;48.884;9.182;2023-09-19T04:50:16;19.70;69.80
20066;DHT22;10193;48.884;9.182;2023-09-19T04:52:44;19.70;69.80
20066;DHT22;10193;48.884;9.182;2023-09-19T04:55:13;19.70;70.00
20066;DHT22;10193;48.884;9.182;2023-09-19T04:57:42;19.70;70.10
20066;DHT22;10193;48.884;9.182;2023-09-19T05:00:11;19.70;70.20
20066;DHT22;10193;48.884;9.182;2023-09-19T05:02:40;19.70;70.20
20066;DHT22;10193;48.884;9.182;2023-09-19T05:05:07;19.70;70.30
20066;DHT22;10193;48.884;9.182;2023-09-19T05:07:35;19.70;70.30
20066;DHT22;10193;48.884;9.182;2023-09-19T05:10:02;19.70;70.20
20066;DHT22;10193;48.884;9.182;2023-09-19T05:12:33;19.70;70.10
20066;DHT22;10193;48.884;9.182;2023-09-19T05:15:01;19.70;69.90
20066;DHT22;10193;48.884;9.182;2023-09-19T05:17:28;19.70;69.80
20066;DHT22;10193;48.884;9.182;2023-09-19T05:19:55;19.60;69.90
20066;DHT22;10193;48.884;9.182;2023-09-19T05:22:22;19.60;70.20
20066;DHT22;10193;48.884;9.182;2023-09-19T05:24:49;19.50;70.00
20066;DHT22;10193;48.884;9.182;2023-09-19T05:27:16;19.50;69.50
20066;DHT22;10193;48.884;9.182;2023-09-19T05:29:44;19.40;69.50
20066;DHT22;10193;48.884;9.182;2023-09-19T05:32:11;19.30;69.70
20066;DHT22;10193;48.884;9.182;2023-09-19T05:34:38;19.20;69.70
20066;DHT22;10193;48.884;9.182;2023-09-19T05:37:05;19.00;69.60
20066;DHT22;10193;48.884;9.182;2023-09-19T05:39:32;18.90;70.10
20066;DHT22;10193;48.884;9.182;2023-09-19T05:41:59;18.80;70.70
20066;DHT22;10193;48.884;9.182;2023-09-19T05:44:26;18.80;71.60
20066;DHT22;10193;48.884;9.182;2023-09-19T05:46:55;18.70;72.20
20066;DHT22;10193;48.884;9.182;2023-09-19T05:49:22;18.60;72.80
20066;DHT22;10193;48.884;9.182;2023-09-19T05:51:50;18.60;73.30
20066;DHT22;10193;48.884;9.182;2023-09-19T05:54:19;18.60;73.90
20066;DHT22;10193;48.884;9.182;2023-09-19T05:56:46;18.60;74.30
20066;DHT22;10193;48.884;9.182;2023-09-19T05:59:13;18.60;74.60
20066;DHT22;10193;48.884;9.182;2023-09-19T06:01:41;18.50;74.80
20066;DHT22;10193;48.884;9.182;2023-09-19T06:04:09;18.50;75.00
20066;DHT22;10193;48.884;9.182;2023-09-19T06:06:35;18.50;74.90
20066;DHT22;10193;48.884;9.182;2023-09-19T06:09:04;18.50;74.60
20066;DHT22;10193;48.884;9.182;2023-09-19T06:11:31;18.50;74.50
20066;DHT22;10193;48.884;9.182;2023-09-19T06:14:00;18.40;74.20
20066;DHT22;10193;48.884;9.182;2023-09-19T06:16:27;18.30;74.40
20066;DHT22;10193;48.884;9.182;2023-09-19T06:18:54;18.30;74.70
20066;DHT22;10193;48.884;9.182;2023-09-19T06:21:22;18.20;75.00
20066;DHT22;10193;48.884;9.182;2023-09-19T06:23:49;18.20;75.40
20066;DHT22;10193;48.884;9.182;2023-09-19T06:26:16;18.10;75.80
20066;DHT22;10193;48.884;9.182;2023-09-19T06:28:43;18.10;75.70
20066;DHT22;10193;48.884;9.182;2023-09-19T06:31:09;18.10;75.90
20066;DHT22;10193;48.884;9.182;2023-09-19T06:33:36;18.00;76.20
20066;DHT22;10193;48.884;9.182;2023-09-19T06:36:04;18.00;76.50
20066;DHT22;10193;48.884;9.182;2023-09-19T06:38:32;18.00;76.60
20066;DHT22;10193;48.884;9.182;2023-09-19T06:41:01;18.00;76.90
20066;DHT22;10193;48.884;9.182;2023-09-19T06:43:29;18.00;77.10
20066;DHT22;10193;48.884;9.182;2023-09-19T06:45:57;18.00;77.50
20066;DHT22;10193;48.884;9.182;2023-09-19T06:48:23;18.10;77.70
20066;DHT22;10193;48.884;9.182;2023-09-19T06:50:53;18.10;77.80
20066;DHT22;10193;48.884;9.182;2023-09-19T06:53:20;18.10;78.20
20066;DHT22;10193;48.884;9.182;2023-09-19T06:55:50;18.20;78.90
20066;DHT22;10193;48.884;9.182;2023-09-19T06:58:17;18.20;79.20
20066;DHT22;10193;48.884;9.182;2023-09-19T07:00:44;18.30;79.60
20066;DHT22;10193;48.884;9.182;2023-09-19T07:03:13;18.40;79.80
20066;DHT22;10193;48.884;9.182;2023-09-19T07:05:41;18.50;80.10
20066;DHT22;10193;48.884;9.182;2023-09-19T07:08:09;18.60;80.40
20066;DHT22;10193;48.884;9.182;2023-09-19T07:10:38;18.70;80.40
20066;DHT22;10193;48.884;9.182;2023-09-19T07:13:07;18.80;80.50
20066;DHT22;10193;48.884;9.182;2023-09-19T07:15:37;18.90;80.30
20066;DHT22;10193;48.884;9.182;2023-09-19T07:18:06;19.00;80.10
20066;DHT22;10193;48.884;9.182;2023-09-19T07:20:34;19.00;79.90
20066;DHT22;10193;48.884;9.182;2023-09-19T07:23:01;19.10;79.80
20066;DHT22;10193;48.884;9.182;2023-09-19T07:25:28;19.10;79.50
20066;DHT22;10193;48.884;9.182;2023-09-19T07:27:55;19.20;79.30
20066;DHT22;10193;48.884;9.182;2023-09-19T07:30:26;19.20;79.00
20066;DHT22;10193;48.884;9.182;2023-09-19T07:32:53;19.20;78.90
20066;DHT22;10193;48.884;9.182;2023-09-19T07:35:20;19.20;79.00
20066;DHT22;10193;48.884;9.182;2023-09-19T07:37:46;19.20;79.30
20066;DHT22;10193;48.884;9.182;2023-09-19T07:40:14;19.20;79.40
20066;DHT22;10193;48.884;9.182;2023-09-19T07:42:41;19.30;79.80
20066;DHT22;10193;48.884;9.182;2023-09-19T07:45:10;19.30;79.50
20066;DHT22;10193;48.884;9.182;2023-09-19T07:47:44;19.30;79.40
20066;DHT22;10193;48.884;9.182;2023-09-19T07:50:11;19.30;79.20
20066;DHT22;10193;48.884;9.182;2023-09-19T07:52:37;19.40;79.30
20066;DHT22;10193;48.884;9.182;2023-09-19T07:55:05;19.40;79.00
20066;DHT22;10193;48.884;9.182;2023-09-19T07:57:34;19.30;78.80
20066;DHT22;10193;48.884;9.182;2023-09-19T08:00:01;19.30;78.40
20066;DHT22;10193;48.884;9.182;2023-09-19T08:02:30;19.40;78.60
20066;DHT22;10193;48.884;9.182;2023-09-19T08:04:58;19.40;78.70
20066;DHT22;10193;48.884;9.182;2023-09-19T08:07:26;19.40;78.80
20066;DHT22;10193;48.884;9.182;2023-09-19T08:09:54;19.30;78.70
20066;DHT22;10193;48.884;9.182;2023-09-19T08:12:20;19.40;79.00
20066;DHT22;10193;48.884;9.182;2023-09-19T08:14:49;19.40;78.90
20066;DHT22;10193;48.884;9.182;2023-09-19T08:17:16;19.40;79.10
20066;DHT22;10193;48.884;9.182;2023-09-19T08:19:45;19.40;79.30
20066;DHT22;10193;48.884;9.182;2023-09-19T08:22:13;19.50;79.60
20066;DHT22;10193;48.884;9.182;2023-09-19T08:24:42;19.50;79.70
20066;DHT22;10193;48.884;9.182;2023-09-19T08:27:10;19.60;80.00
20066;DHT22;10193;48.884;9.182;2023-09-19T08:29:38;19.70;79.90
20066;DHT22;10193;48.884;9.182;2023-09-19T08:32:04;19.80;79.80
20066;DHT22;10193;48.884;9.182;2023-09-19T08:34:31;19.90;79.60
20066;DHT22;10193;48.884;9.182;2023-09-19T08:36:59;19.90;79.30
20066;DHT22;10193;48.884;9.182;2023-09-19T08:39:27;20.00;79.30
20066;DHT22;10193;48.884;9.182;2023-09-19T08:41:57;20.10;79.50
20066;DHT22;10193;48.884;9.182;2023-09-19T08:44:25;20.20;79.60
20066;DHT22;10193;48.884;9.182;2023-09-19T08:46:55;20.20;79.60
20066;DHT22;10193;48.884;9.182;2023-09-19T08:49:28;20.30;79.70
20066;DHT22;10193;48.884;9.182;2023-09-19T08:52:04;20.40;79.20
20066;DHT22;10193;48.884;9.182;2023-09-19T08:54:38;20.50;79.20
20066;DHT22;10193;48.884;9.182;2023-09-19T08:57:07;20.60;79.00
20066;DHT22;10193;48.884;9.182;2023-09-19T08:59:37;20.70;79.10
20066;DHT22;10193;48.884;9.182;2023-09-19T09:02:10;20.80;78.70
20066;DHT22;10193;48.884;9.182;2023-09-19T09:04:39;20.90;78.40
20066;DHT22;10193;48.884;9.182;2023-09-19T09:07:10;21.00;78.60
20066;DHT22;10193;48.884;9.182;2023-09-19T09:09:39;21.00;78.10
20066;DHT22;10193;48.884;9.182;2023-09-19T09:12:09;21.10;78.20
20066;DHT22;10193;48.884;9.182;2023-09-19T09:14:38;21.20;79.20
20066;DHT22;10193;48.884;9.182;2023-09-19T09:17:04;21.30;78.40
20066;DHT22;10193;48.884;9.182;2023-09-19T09:19:31;21.40;78.10
20066;DHT22;10193;48.884;9.182;2023-09-19T09:22:06;21.50;78.10
20066;DHT22;10193;48.884;9.182;2023-09-19T09:24:33;21.60;76.50
20066;DHT22;10193;48.884;9.182;2023-09-19T09:27:03;21.70;77.30
20066;DHT22;10193;48.884;9.182;2023-09-19T09:29:44;21.80;76.90
20066;DHT22;10193;48.884;9.182;2023-09-19T09:32:19;21.90;74.90
20066;DHT22;10193;48.884;9.182;2023-09-19T09:34:48;21.90;75.10
20066;DHT22;10193;48.884;9.182;2023-09-19T09:37:15;22.00;75.90
20066;DHT22;10193;48.884;9.182;2023-09-19T09:39:55;22.10;76.00
20066;DHT22;10193;48.884;9.182;2023-09-19T09:42:32;22.10;74.20
20066;DHT22;10193;48.884;9.182;2023-09-19T09:45:13;22.20;74.70
20066;DHT22;10193;48.884;9.182;2023-09-19T09:47:45;22.20;74.30
20066;DHT22;10193;48.884;9.182;2023-09-19T09:50:30;22.30;74.80
20066;DHT22;10193;48.884;9.182;2023-09-19T09:53:22;22.40;73.70
20066;DHT22;10193;48.884;9.182;2023-09-19T09:56:01;22.40;72.90
20066;DHT22;10193;48.884;9.182;2023-09-19T09:58:32;22.50;73.20
20066;DHT22;10193;48.884;9.182;2023-09-19T10:01:01;22.60;73.90
20066;DHT22;10193;48.884;9.182;2023-09-19T10:03:35;22.70;73.70
20066;DHT22;10193;48.884;9.182;2023-09-19T10:06:06;22.70;73.90
20066;DHT22;10193;48.884;9.182;2023-09-19T10:09:03;22.70;73.70
20066;DHT22;10193;48.884;9.182;2023-09-19T10:11:44;22.80;71.80
20066;DHT22;10193;48.884;9.182;2023-09-19T10:14:14;22.90;72.70
20066;DHT22;10193;48.884;9.182;2023-09-19T10:16:45;22.90;72.70
20066;DHT22;10193;48.884;9.182;2023-09-19T10:19:16;23.00;72.20
20066;DHT22;10193;48.884;9.182;2023-09-19T10:21:46;23.00;72.20
20066;DHT22;10193;48.884;9.182;2023-09-19T10:24:14;23.10;72.50
20066;DHT22;10193;48.884;9.182;2023-09-19T10:26:42;23.20;72.40
20066;DHT22;10193;48.884;9.182;2023-09-19T10:29:13;23.20;71.50
20066;DHT22;10193;48.884;9.182;2023-09-19T10:31:42;23.30;70.50
20066;DHT22;10193;48.884;9.182;2023-09-19T10:34:14;23.30;70.40
20066;DHT22;10193;48.884;9.182;2023-09-19T10:36:44;23.40;70.30
20066;DHT22;10193;48.884;9.182;2023-09-19T10:39:14;23.40;69.80
20066;DHT22;10193;48.884;9.182;2023-09-19T10:41:44;23.40;70.30
20066;DHT22;10193;48.884;9.182;2023-09-19T10:44:23;23.50;70.30
20066;DHT22;10193;48.884;9.182;2023-09-19T10:46:50;23.50;70.50
20066;DHT22;10193;48.884;9.182;2023-09-19T10:49:18;23.60;71.10
20066;DHT22;10193;48.884;9.182;2023-09-19T10:51:46;23.70;71.30
20066;DHT22;10193;48.884;9.182;2023-09-19T10:54:17;23.90;71.20
20066;DHT22;10193;48.884;9.182;2023-09-19T10:56:47;24.00;70.90
20066;DHT22;10193;48.884;9.182;2023-09-19T10:59:16;24.10;70.50
20066;DHT22;10193;48.884;9.182;2023-09-19T11:01:46;24.20;70.40
20066;DHT22;10193;48.884;9.182;2023-09-19T11:04:24;24.30;69.80
20066;DHT22;10193;48.884;9.182;2023-09-19T11:07:04;24.40;68.70
20066;DHT22;10193;48.884;9.182;2023-09-19T11:09:47;24.40;65.80
20066;DHT22;10193;48.884;9.182;2023-09-19T11:12:50;24.40;65.60
20066;DHT22;10193;48.884;9.182;2023-09-19T11:18:53;24.40;65.60
20066;DHT22;10193;48.884;9.182;2023-09-19T11:21:51;24.40;64.70
20066;DHT22;10193;48.884;9.182;2023-09-19T11:24:32;24.30;65.70
20066;DHT22;10193;48.884;9.182;2023-09-19T11:27:17;24.20;65.60
20066;DHT22;10193;48.884;9.182;2023-09-19T11:29:45;24.10;63.70
20066;DHT22;10193;48.884;9.182;2023-09-19T11:32:13;24.00;66.00
20066;DHT22;10193;48.884;9.182;2023-09-19T11:34:47;24.00;66.20
20066;DHT22;10193;48.884;9.182;2023-09-19T11:40:45;23.80;64.80
20066;DHT22;10193;48.884;9.182;2023-09-19T11:43:32;23.80;66.60
20066;DHT22;10193;48.884;9.182;2023-09-19T11:46:05;23.80;65.40
20066;DHT22;10193;48.884;9.182;2023-09-19T11:48:32;23.80;66.80
20066;DHT22;10193;48.884;9.182;2023-09-19T11:51:03;23.90;66.50
20066;DHT22;10193;48.884;9.182;2023-09-19T11:53:40;23.90;67.10
20066;DHT22;10193;48.884;9.182;2023-09-19T11:56:08;23.90;66.50
20066;DHT22;10193;48.884;9.182;2023-09-19T11:58:36;23.90;66.60
20066;DHT22;10193;48.884;9.182;2023-09-19T12:01:05;23.90;66.60
20066;DHT22;10193;48.884;9.182;2023-09-19T12:03:36;23.90;66.40
20066;DHT22;10193;48.884;9.182;2023-09-19T12:06:12;23.90;65.70
20066;DHT22;10193;48.884;9.182;2023-09-19T12:08:40;23.90;65.20
20066;DHT22;10193;48.884;9.182;2023-09-19T12:11:12;23.90;66.00
20066;DHT22;10193;48.884;9.182;2023-09-19T12:13:42;23.90;65.20
20066;DHT22;10193;48.884;9.182;2023-09-19T12:16:12;23.90;65.80
20066;DHT22;10193;48.884;9.182;2023-09-19T12:18:40;23.90;65.20
20066;DHT22;10193;48.884;9.182;2023-09-19T12:21:08;23.90;64.40
20066;DHT22;10193;48.884;9.182;2023-09-19T12:23:58;23.90;64.10
20066;DHT22;10193;48.884;9.182;2023-09-19T12:26:26;23.90;63.10
20066;DHT22;10193;48.884;9.182;2023-09-19T12:28:54;23.90;63.60
20066;DHT22;10193;48.884;9.182;2023-09-19T12:31:21;23.90;63.70
20066;DHT22;10193;48.884;9.182;2023-09-19T12:33:53;23.80;63.20
20066;DHT22;10193;48.884;9.182;2023-09-19T12:36:20;23.90;63.00
20066;DHT22;10193;48.884;9.182;2023-09-19T12:38:50;23.80;63.10
20066;DHT22;10193;48.884;9.182;2023-09-19T12:41:20;23.90;63.30
20066;DHT22;10193;48.884;9.182;2023-09-19T12:43:47;23.90;63.30
20066;DHT22;10193;48.884;9.182;2023-09-19T12:46:14;23.90;63.20
20066;DHT22;10193;48.884;9.182;2023-09-19T12:48:44;24.00;63.00
20066;DHT22;10193;48.884;9.182;2023-09-19T12:51:13;24.00;62.70
20066;DHT22;10193;48.884;9.182;2023-09-19T12:53:43;24.00;62.70
20066;DHT22;10193;48.884;9.182;2023-09-19T12:56:11;24.10;62.70
20066;DHT22;10193;48.884;9.182;2023-09-19T12:58:51;24.10;62.40
20066;DHT22;10193;48.884;9.182;2023-09-19T13:01:19;24.10;61.10
20066;DHT22;10193;48.884;9.182;2023-09-19T13:03:46;24.10;62.90
20066;DHT22;10193;48.884;9.182;2023-09-19T13:06:35;24.10;62.70
20066;DHT22;10193;48.884;9.182;2023-09-19T13:09:08;24.20;62.50
20066;DHT22;10193;48.884;9.182;2023-09-19T13:11:36;24.30;62.10
20066;DHT22;10193;48.884;9.182;2023-09-19T13:14:16;24.40;62.40
20066;DHT22;10193;48.884;9.182;2023-09-19T13:16:58;24.40;60.80
20066;DHT22;10193;48.884;9.182;2023-09-19T13:19:36;24.40;61.30
20066;DHT22;10193;48.884;9.182;2023-09-19T13:22:04;24.50;61.10
20066;DHT22;10193;48.884;9.182;2023-09-19T13:24:32;24.60;61.50
20066;DHT22;10193;48.884;9.182;2023-09-19T13:27:00;24.60;61.50
20066;DHT22;10193;48.884;9.182;2023-09-19T13:29:30;24.70;61.50
20066;DHT22;10193;48.884;9.182;2023-09-19T13:31:56;24.70;61.30
20066;DHT22;10193;48.884;9.182;2023-09-19T13:34:23;24.70;61.20
20066;DHT22;10193;48.884;9.182;2023-09-19T13:36:50;24.80;61.00
20066;DHT22;10193;48.884;9.182;2023-09-19T13:39:17;24.80;61.10
20066;DHT22;10193;48.884;9.182;2023-09-19T13:41:44;24.80;61.00
20066;DHT22;10193;48.884;9.182;2023-09-19T13:44:11;24.90;61.30
20066;DHT22;10193;48.884;9.182;2023-09-19T13:46:40;24.90;61.00
20066;DHT22;10193;48.884;9.182;2023-09-19T13:49:11;24.90;60.90
20066;DHT22;10193;48.884;9.182;2023-09-19T13:51:37;25.00;60.80
20066;DHT22;10193;48.884;9.182;2023-09-19T13:54:05;25.00;60.20
20066;DHT22;10193;48.884;9.182;2023-09-19T13:56:32;25.00;59.90
20066;DHT22;10193;48.884;9.182;2023-09-19T13:58:59;25.00;59.70
20066;DHT22;10193;48.884;9.182;2023-09-19T14:01:25;25.00;60.40
20066;DHT22;10193;48.884;9.182;2023-09-19T14:03:53;25.00;59.50
20066;DHT22;10193;48.884;9.182;2023-09-19T14:06:22;25.00;59.30
20066;DHT22;10193;48.884;9.182;2023-09-19T14:08:49;25.00;59.50
20066;DHT22;10193;48.884;9.182;2023-09-19T14:11:16;25.00;59.50
20066;DHT22;10193;48.884;9.182;2023-09-19T14:13:43;25.00;59.20
20066;DHT22;10193;48.884;9.182;2023-09-19T14:16:12;25.00;59.00
20066;DHT22;10193;48.884;9.182;2023-09-19T14:18:39;25.00;59.10
20066;DHT22;10193;48.884;9.182;2023-09-19T14:21:07;24.90;59.10
20066;DHT22;10193;48.884;9.182;2023-09-19T14:23:36;24.90;59.00
20066;DHT22;10193;48.884;9.182;2023-09-19T14:26:04;24.90;59.10
20066;DHT22;10193;48.884;9.182;2023-09-19T14:28:31;24.90;59.00
20066;DHT22;10193;48.884;9.182;2023-09-19T14:31:04;24.90;59.20
20066;DHT22;10193;48.884;9.182;2023-09-19T14:33:31;24.90;58.80
20066;DHT22;10193;48.884;9.182;2023-09-19T14:35:57;24.90;59.20
20066;DHT22;10193;48.884;9.182;2023-09-19T14:38:25;24.90;59.20
20066;DHT22;10193;48.884;9.182;2023-09-19T14:40:59;24.90;59.00
20066;DHT22;10193;48.884;9.182;2023-09-19T14:43:26;24.90;58.40
20066;DHT22;10193;48.884;9.182;2023-09-19T14:45:54;24.90;58.90
20066;DHT22;10193;48.884;9.182;2023-09-19T14:48:22;24.90;58.70
20066;DHT22;10193;48.884;9.182;2023-09-19T14:50:50;25.00;58.80
20066;DHT22;10193;48.884;9.182;2023-09-19T14:53:17;24.90;58.60
20066;DHT22;10193;48.884;9.182;2023-09-19T14:55:45;25.00;58.90
20066;DHT22;10193;48.884;9.182;2023-09-19T14:58:13;25.00;59.00
20066;DHT22;10193;48.884;9.182;2023-09-19T15:00:39;25.00;58.90
20066;DHT22;10193;48.884;9.182;2023-09-19T15:03:06;25.00;58.80
20066;DHT22;10193;48.884;9.182;2023-09-19T15:05:33;25.10;58.70
20066;DHT22;10193;48.884;9.182;2023-09-19T15:07:59;25.10;58.60
20066;DHT22;10193;48.884;9.182;2023-09-19T15:10:28;25.10;58.50
20066;DHT22;10193;48.884;9.182;2023-09-19T15:12:57;25.20;58.50
20066;DHT22;10193;48.884;9.182;2023-09-19T15:15:24;25.20;58.20
20066;DHT22;10193;48.884;9.182;2023-09-19T15:17:50;25.20;58.20
20066;DHT22;10193;48.884;9.182;2023-09-19T15:20:17;25.20;58.10
20066;DHT22;10193;48.884;9.182;2023-09-19T15:22:44;25.20;58.20
20066;DHT22;10193;48.884;9.182;2023-09-19T15:25:11;25.20;58.10
20066;DHT22;10193;48.884;9.182;2023-09-19T15:27:38;25.20;58.00
20066;DHT22;10193;48.884;9.182;2023-09-19T15:30:09;25.20;58.10
20066;DHT22;10193;48.884;9.182;2023-09-19T15:32:36;25.20;58.00
20066;DHT22;10193;48.884;9.182;2023-09-19T15:35:03;25.20;57.90
20066;DHT22;10193;48.884;9.182;2023-09-19T15:37:31;25.20;57.80
20066;DHT22;10193;48.884;9.182;2023-09-19T15:39:57;25.20;58.40
20066;DHT22;10193;48.884;9.182;2023-09-19T15:42:24;25.20;57.70
20066;DHT22;10193;48.884;9.182;2023-09-19T15:44:51;25.10;57.50
20066;DHT22;10193;48.884;9.182;2023-09-19T15:47:19;25.10;57.20
20066;DHT22;10193;48.884;9.182;2023-09-19T15:49:45;25.10;57.10
20066;DHT22;10193;48.884;9.182;2023-09-19T15:52:17;25.10;57.20